Time;durP1;ratioP1;P1;durP2;ratioP2;P2;SDS_P1;SDS_P2;PMS_P1;PMS_P2;Temp;Humidity;BMP_temperature;BMP_pressure;BME280_temperature;BME280_humidity;BME280_pressure;Samples;Min_cycle;Max_cycle;Signal;HPM_P1;HPM_P2
2021/06/19 00:00:14;;;;;;;11.63;8.88;;;;;;;21.81;100.00;96105.19;5018836;28;20064;-57
2021/06/19 00:02:43;;;;;;;12.93;9.10;;;;;;;21.65;100.00;96105.00;5022208;28;20060;-55
2021/06/19 00:05:13;;;;;;;9.40;8.40;;;;;;;21.43;100.00;96104.56;5022249;28;20070;-56
2021/06/19 00:07:42;;;;;;;9.60;8.63;;;;;;;21.53;100.00;96107.56;5020394;28;20084;-57
2021/06/19 00:10:13;;;;;;;11.10;9.15;;;;;;;21.56;100.00;96101.75;5022675;28;20084;-55
2021/06/19 00:12:45;;;;;;;13.00;8.77;;;;;;;21.25;100.00;96092.75;5024181;28;20092;-56
2021/06/19 00:15:15;;;;;;;11.27;9.23;;;;;;;21.18;100.00;96096.53;5024168;28;20069;-53
2021/06/19 00:17:44;;;;;;;12.25;9.30;;;;;;;21.44;100.00;96099.00;5021520;28;20068;-57
2021/06/19 00:20:15;;;;;;;10.80;9.55;;;;;;;21.36;100.00;96101.94;5025338;28;20097;-55
2021/06/19 00:22:45;;;;;;;12.02;10.43;;;;;;;21.48;100.00;96108.25;5021775;28;20480;-56
2021/06/19 00:25:15;;;;;;;11.13;9.43;;;;;;;21.13;100.00;96109.75;5025836;28;20081;-57
2021/06/19 00:27:45;;;;;;;14.05;8.77;;;;;;;20.86;100.00;96126.09;5022839;28;20077;-56
2021/06/19 00:30:15;;;;;;;13.30;8.68;;;;;;;21.05;100.00;96122.41;5024746;28;20087;-54
2021/06/19 00:32:44;;;;;;;10.68;9.10;;;;;;;20.96;100.00;96121.06;5021269;28;20072;-57
2021/06/19 00:35:13;;;;;;;11.63;10.02;;;;;;;;;;5024689;28;20061;-56
2021/06/19 00:37:41;;;;;;;12.88;10.50;;;;;;;20.88;100.00;96128.53;5021532;28;20088;-57
2021/06/19 00:40:39;;;;;;;12.40;11.07;;;;;;;21.16;100.00;96128.09;5025472;28;20046;-54
2021/06/19 00:43:09;;;;;;;12.27;10.55;;;;;;;21.03;100.00;96137.91;5024816;28;20486;-57
2021/06/19 00:45:39;;;;;;;12.68;10.95;;;;;;;20.85;100.00;96137.81;5020280;28;20237;-56
2021/06/19 00:48:08;;;;;;;13.00;10.73;;;;;;;20.95;100.00;96134.66;5022537;28;20064;-54
2021/06/19 00:50:38;;;;;;;11.75;10.60;;;;;;;21.02;100.00;96138.09;5024160;28;20061;-54
2021/06/19 00:53:06;;;;;;;15.75;11.15;;;;;;;21.07;100.00;96136.44;5021367;28;20061;-56
2021/06/19 00:55:34;;;;;;;10.82;9.75;;;;;;;;;;5024352;28;20064;-56
2021/06/19 00:58:04;;;;;;;13.85;9.65;;;;;;;20.85;100.00;96143.19;5025745;28;20077;-57
2021/06/19 01:00:34;;;;;;;10.55;9.45;;;;;;;20.86;100.00;96148.34;5017999;28;20061;-56
2021/06/19 01:03:03;;;;;;;11.07;9.68;;;;;;;20.82;100.00;96154.34;5024210;28;20065;-56
2021/06/19 01:05:32;;;;;;;11.20;9.52;;;;;;;20.80;100.00;96149.19;5023128;28;20077;-54
2021/06/19 01:08:01;;;;;;;11.77;10.57;;;;;;;20.73;100.00;96159.13;5018346;28;20092;-59
2021/06/19 01:10:30;;;;;;;14.32;10.80;;;;;;;20.61;100.00;96164.38;5020694;28;20519;-56
2021/06/19 01:12:59;;;;;;;16.25;10.75;;;;;;;20.67;100.00;96167.22;5020816;28;20073;-57
2021/06/19 01:15:28;;;;;;;13.55;11.20;;;;;;;20.68;100.00;96171.53;5026624;28;20499;-58
2021/06/19 01:17:58;;;;;;;14.50;11.38;;;;;;;20.62;100.00;96173.22;5024981;28;20073;-56
2021/06/19 01:20:27;;;;;;;14.70;11.20;;;;;;;20.58;100.00;96169.34;5017114;28;20170;-57
2021/06/19 01:22:56;;;;;;;14.20;11.70;;;;;;;20.64;100.00;96176.50;5022785;28;20159;-57
2021/06/19 01:25:28;;;;;;;12.32;11.02;;;;;;;20.44;100.00;96179.28;5019852;28;20073;-57
2021/06/19 01:27:57;;;;;;;13.82;11.38;;;;;;;20.42;100.00;96180.50;5023316;28;20081;-55
2021/06/19 01:30:27;;;;;;;13.38;11.98;;;;;;;20.59;100.00;96182.50;5024229;28;20065;-55
2021/06/19 01:32:56;;;;;;;13.93;12.40;;;;;;;20.61;100.00;96180.47;5026564;28;20073;-52
2021/06/19 01:35:25;;;;;;;12.23;10.93;;;;;;;20.71;100.00;96171.91;5001644;28;20287;-58
2021/06/19 01:37:55;;;;;;;12.07;10.80;;;;;;;20.75;100.00;96175.84;5024124;28;20444;-52
2021/06/19 01:40:26;;;;;;;13.65;11.75;;;;;;;20.61;100.00;96179.59;5019873;28;20065;-57
2021/06/19 01:42:55;;;;;;;13.43;12.02;;;;;;;20.61;100.00;96174.25;5009197;28;20076;-57
2021/06/19 01:45:26;;;;;;;13.70;12.13;;;;;;;20.84;100.00;96171.84;5003016;28;20064;-58
2021/06/19 01:47:55;;;;;;;20.65;12.43;;;;;;;20.69;100.00;96165.97;5008582;28;20527;-56
2021/06/19 01:50:25;;;;;;;15.43;12.38;;;;;;;20.47;100.00;96168.09;5015457;28;20037;-56
2021/06/19 01:52:55;;;;;;;14.80;12.07;;;;;;;20.61;100.00;96158.16;5023803;28;20061;-58
2021/06/19 01:55:25;;;;;;;15.25;12.80;;;;;;;20.50;100.00;96161.50;5021566;28;20092;-55
2021/06/19 01:57:56;;;;;;;14.20;12.60;;;;;;;20.61;100.00;96167.06;5021130;28;20069;-57
2021/06/19 02:00:27;;;;;;;16.92;13.45;;;;;;;20.62;100.00;96167.88;5021236;28;20111;-53
2021/06/19 02:02:56;;;;;;;14.75;13.15;;;;;;;20.70;100.00;96172.97;5022076;28;20065;-53
2021/06/19 02:05:26;;;;;;;14.48;12.98;;;;;;;20.65;100.00;96180.84;5004566;28;20166;-58
2021/06/19 02:07:55;;;;;;;;;;;;;;;20.72;100.00;96175.44;5008356;28;20061;-57
2021/06/19 02:10:26;;;;;;;14.80;13.20;;;;;;;20.68;100.00;96174.22;5017591;28;19961;-57
2021/06/19 02:12:55;;;;;;;16.90;13.38;;;;;;;20.67;100.00;96173.41;5023454;28;20161;-54
2021/06/19 02:15:24;;;;;;;15.02;13.43;;;;;;;20.65;100.00;96170.13;5020916;28;20033;-55
2021/06/19 02:17:54;;;;;;;15.15;13.50;;;;;;;20.71;100.00;96176.47;5022897;28;20088;-57
2021/06/19 02:20:24;;;;;;;15.73;14.10;;;;;;;20.62;100.00;96170.56;5024053;28;20065;-56
2021/06/19 02:22:53;;;;;;;;;;;;;;;20.64;100.00;96165.78;5018544;28;20064;-57
2021/06/19 02:25:23;;;;;;;14.73;13.27;;;;;;;20.67;100.00;96170.72;5016880;28;19955;-57
2021/06/19 02:27:54;;;;;;;18.48;13.70;;;;;;;20.46;100.00;96185.22;5007183;28;20073;-57
2021/06/19 02:30:24;;;;;;;14.38;12.88;;;;;;;20.40;100.00;96178.03;5002547;28;20551;-57
2021/06/19 02:32:53;;;;;;;14.05;12.48;;;;;;;20.61;100.00;96179.59;5020559;28;20061;-55
2021/06/19 02:35:25;;;;;;;14.10;12.70;;;;;;;20.56;100.00;96188.28;5024530;28;20170;-58
2021/06/19 02:37:55;;;;;;;17.00;13.75;;;;;;;20.70;100.00;96185.56;5019795;28;20065;-59
2021/06/19 02:40:24;;;;;;;15.02;13.27;;;;;;;20.70;100.00;96182.88;5020960;28;20077;-57
2021/06/19 02:42:55;;;;;;;14.75;13.25;;;;;;;20.83;100.00;96190.84;5019898;28;20087;-58
2021/06/19 02:45:23;;;;;;;14.52;13.00;;;;;;;20.93;100.00;96188.50;5017166;28;20464;-57
2021/06/19 02:47:54;;;;;;;14.93;13.30;;;;;;;20.86;100.00;96196.59;5019687;28;20079;-55
2021/06/19 02:50:24;;;;;;;15.38;13.02;;;;;;;20.90;100.00;96188.94;5022675;28;20091;-58
2021/06/19 02:52:53;;;;;;;14.82;13.25;;;;;;;20.77;100.00;96194.38;5017756;28;20071;-56
2021/06/19 02:55:23;;;;;;;14.60;12.75;;;;;;;20.97;100.00;96188.91;5022756;28;20088;-59
2021/06/19 02:57:51;;;;;;;14.93;12.85;;;;;;;21.10;100.00;96189.63;5023578;28;20089;-58
2021/06/19 03:00:22;;;;;;;14.40;12.90;;;;;;;21.27;100.00;96186.41;5023936;28;20704;-58
2021/06/19 03:02:52;;;;;;;17.70;13.38;;;;;;;21.20;100.00;96183.78;5019485;28;20513;-58
2021/06/19 03:05:21;;;;;;;15.23;13.30;;;;;;;21.14;100.00;96197.22;5021532;28;20065;-58
2021/06/19 03:07:51;;;;;;;15.00;13.45;;;;;;;21.14;100.00;96189.19;5002269;28;20065;-55
2021/06/19 03:10:21;;;;;;;16.73;13.65;;;;;;;21.23;100.00;96194.06;5022987;28;20077;-57
2021/06/19 03:12:50;;;;;;;14.95;13.38;;;;;;;21.07;100.00;96190.06;5019960;28;20159;-58
2021/06/19 03:15:19;;;;;;;17.17;13.75;;;;;;;21.21;100.00;96190.78;5019156;28;20065;-56
2021/06/19 03:17:48;;;;;;;14.60;13.05;;;;;;;21.18;100.00;96195.75;5018032;28;20069;-54
2021/06/19 03:20:18;;;;;;;16.17;13.23;;;;;;;21.29;100.00;96200.41;5016712;28;20090;-53
2021/06/19 03:22:49;;;;;;;15.38;13.88;;;;;;;21.39;100.00;96197.28;5022914;28;20069;-57
2021/06/19 03:25:19;;;;;;;18.40;13.80;;;;;;;21.21;100.00;96203.38;5018632;28;20084;-58
2021/06/19 03:27:48;;;;;;;18.52;14.02;;;;;;;21.25;100.00;96208.06;5021434;28;20073;-55
2021/06/19 03:30:19;;;;;;;16.02;14.05;;;;;;;21.31;100.00;96211.75;5020791;28;20548;-58
2021/06/19 03:32:50;;;;;;;17.25;13.73;;;;;;;21.34;100.00;96214.03;5019071;28;20069;-58
2021/06/19 03:35:19;;;;;;;16.40;14.45;;;;;;;21.26;100.00;96216.94;5016407;28;20077;-58
2021/06/19 03:37:48;;;;;;;17.63;13.80;;;;;;;21.22;100.00;96213.03;5024489;28;20068;-55
2021/06/19 03:40:17;;;;;;;18.05;13.68;;;;;;;21.42;100.00;96213.75;5019749;28;20084;-58
2021/06/19 03:42:49;;;;;;;15.70;13.45;;;;;;;21.64;100.00;96203.44;5023498;28;20077;-56
2021/06/19 03:45:19;;;;;;;15.45;13.95;;;;;;;21.57;100.00;96216.09;5023308;28;20100;-54
2021/06/19 03:47:47;;;;;;;17.10;13.57;;;;;;;21.53;100.00;96217.56;5024472;28;20057;-56
2021/06/19 03:50:19;;;;;;;15.20;13.15;;;;;;;21.74;100.00;96217.19;5023977;28;20065;-57
2021/06/19 03:52:52;;;;;;;14.93;12.98;;;;;;;22.08;100.00;96216.84;5024015;28;20069;-57
2021/06/19 03:55:21;;;;;;;15.93;13.68;;;;;;;21.95;100.00;96217.81;5021506;28;20088;-57
2021/06/19 03:57:49;;;;;;;14.93;13.15;;;;;;;22.26;100.00;96215.03;5024145;28;20077;-57
2021/06/19 04:00:19;;;;;;;17.50;12.75;;;;;;;22.28;100.00;96222.84;5019869;28;20068;-53
2021/06/19 04:02:49;;;;;;;14.75;13.18;;;;;;;22.31;100.00;96235.84;5025076;28;20069;-57
2021/06/19 04:05:20;;;;;;;14.57;12.38;;;;;;;22.92;100.00;96234.91;5023974;28;20135;-58
2021/06/19 04:07:49;;;;;;;15.95;12.48;;;;;;;23.60;100.00;96227.47;5024423;28;20072;-54
2021/06/19 04:10:18;;;;;;;14.98;12.77;;;;;;;23.71;100.00;96223.16;5022959;28;20073;-57
2021/06/19 04:12:48;;;;;;;14.98;12.40;;;;;;;23.52;100.00;96225.13;5026200;28;20077;-57
2021/06/19 04:15:18;;;;;;;14.88;12.48;;;;;;;24.07;100.00;96227.50;5021581;28;20092;-57
2021/06/19 04:17:47;;;;;;;15.63;12.88;;;;;;;24.14;100.00;96236.28;5027656;28;20729;-56
2021/06/19 04:20:16;;;;;;;15.35;12.90;;;;;;;24.39;100.00;96241.41;5006144;28;20764;-55
2021/06/19 04:22:47;;;;;;;13.82;12.48;;;;;;;24.08;100.00;96250.69;5020909;28;20069;-52
2021/06/19 04:25:17;;;;;;;16.05;13.27;;;;;;;24.43;100.00;96252.56;5023551;28;20089;-54
2021/06/19 04:27:47;;;;;;;13.45;12.05;;;;;;;24.79;100.00;96254.94;5025367;28;20156;-52
2021/06/19 04:30:18;;;;;;;14.13;12.48;;;;;;;25.17;100.00;96258.94;5022067;28;20061;-52
2021/06/19 04:32:48;;;;;;;13.52;12.13;;;;;;;24.81;100.00;96266.31;5020790;28;20065;-57
2021/06/19 04:35:17;;;;;;;14.23;12.73;;;;;;;25.02;100.00;96270.22;5026515;28;20546;-58
2021/06/19 04:37:47;;;;;;;14.57;12.02;;;;;;;24.99;100.00;96272.59;5001959;28;20090;-57
2021/06/19 04:40:19;;;;;;;;;;;;;;;25.17;100.00;96277.00;5009053;28;20552;-57
2021/06/19 04:42:56;;;;;;;14.18;12.35;;;;;;;24.57;100.00;96278.19;5022303;28;19969;-57
2021/06/19 04:45:26;;;;;;;13.50;11.75;;;;;;;24.28;100.00;96283.50;5022215;28;20061;-56
2021/06/19 04:47:59;;;;;;;13.73;11.85;;;;;;;25.23;100.00;96281.44;5017677;28;20069;-56
2021/06/19 04:50:28;;;;;;;14.18;12.57;;;;;;;24.85;100.00;96280.97;5023982;28;20495;-56
2021/06/19 04:52:58;;;;;;;14.18;12.32;;;;;;;25.15;100.00;96292.59;5022959;28;20057;-58
2021/06/19 04:55:28;;;;;;;14.70;12.75;;;;;;;24.89;100.00;96294.78;5024989;28;20091;-56
2021/06/19 04:58:02;;;;;;;14.15;12.65;;;;;;;25.06;100.00;96294.84;5018826;28;20077;-56
2021/06/19 05:00:30;;;;;;;15.13;12.25;;;;;;;25.24;100.00;96299.28;5023553;28;20073;-56
2021/06/19 05:02:59;;;;;;;13.55;12.15;;;;;;;25.21;100.00;96300.56;5019769;28;20069;-57
2021/06/19 05:05:28;;;;;;;13.85;12.27;;;;;;;25.98;100.00;96301.91;5026011;28;20069;-57
2021/06/19 05:07:59;;;;;;;14.23;12.77;;;;;;;25.76;100.00;96302.63;5018608;28;20109;-55
2021/06/19 05:10:28;;;;;;;;;;;;;;;25.26;100.00;96305.25;5025570;28;20096;-57
2021/06/19 05:12:56;;;;;;;13.98;11.85;;;;;;;25.46;100.00;96305.59;5019382;28;19977;-58
2021/06/19 05:15:26;;;;;;;13.48;12.07;;;;;;;24.76;100.00;96312.06;5023368;28;20069;-54
2021/06/19 05:17:54;;;;;;;15.20;12.20;;;;;;;25.40;100.00;96311.19;5020251;28;20065;-58
2021/06/19 05:20:26;;;;;;;15.07;11.55;;;;;;;25.39;100.00;96314.91;5026679;28;20458;-56
2021/06/19 05:22:56;;;;;;;12.75;11.35;;;;;;;25.51;100.00;96313.00;5022096;28;20076;-56
2021/06/19 05:25:26;;;;;;;12.20;10.95;;;;;;;25.86;100.00;96314.69;5020914;28;20085;-58
2021/06/19 05:27:54;;;;;;;;;;;;;;;25.84;100.00;96316.81;5026469;28;20109;-49
2021/06/19 05:30:23;;;;;;;14.07;11.27;;;;;;;25.94;100.00;96323.22;5025354;28;19968;-54
2021/06/19 05:32:51;;;;;;;13.03;10.97;;;;;;;25.60;100.00;96316.09;5022192;28;20081;-56
2021/06/19 05:35:20;;;;;;;14.23;11.05;;;;;;;26.04;100.00;96311.75;5021911;28;20496;-57
2021/06/19 05:37:49;;;;;;;13.05;11.15;;;;;;;27.01;99.59;96313.13;5020806;28;20061;-56
2021/06/19 05:40:17;;;;;;;13.68;10.32;;;;;;;26.35;100.00;96323.03;5020765;28;20061;-56
2021/06/19 05:42:48;;;;;;;15.23;11.68;;;;;;;26.92;94.79;96323.59;5027917;28;20080;-57
2021/06/19 05:45:16;;;;;;;11.95;10.73;;;;;;;27.48;95.44;96320.72;5022601;28;20065;-57
2021/06/19 05:47:45;;;;;;;12.15;10.25;;;;;;;28.00;89.65;96317.41;5021644;28;20061;-53
2021/06/19 05:50:13;;;;;;;11.23;10.02;;;;;;;27.80;88.17;96314.53;5022405;28;20062;-55
2021/06/19 05:52:42;;;;;;;12.50;9.35;;;;;;;27.36;89.59;96325.47;5023000;28;20065;-58
2021/06/19 05:55:16;;;;;;;11.70;9.40;;;;;;;26.35;100.00;96328.44;5021479;28;20152;-57
2021/06/19 05:57:44;;;;;;;12.45;10.35;;;;;;;25.52;100.00;96320.84;5027594;28;20092;-55
2021/06/19 06:00:15;;;;;;;12.13;10.30;;;;;;;25.67;100.00;96325.72;5020312;28;20073;-55
2021/06/19 06:02:45;;;;;;;12.98;10.38;;;;;;;25.71;100.00;96332.25;5024342;28;20069;-55
2021/06/19 06:05:14;;;;;;;13.50;9.73;;;;;;;25.22;100.00;96328.38;5021293;28;20517;-54
2021/06/19 06:07:42;;;;;;;13.85;9.80;;;;;;;25.37;100.00;96325.97;5024687;28;20066;-57
2021/06/19 06:10:12;;;;;;;11.82;10.20;;;;;;;25.12;100.00;96334.41;5019816;28;20073;-56
2021/06/19 06:12:41;;;;;;;12.73;9.82;;;;;;;24.85;100.00;96334.09;5023086;28;20061;-56
2021/06/19 06:15:10;;;;;;;14.32;10.35;;;;;;;24.84;100.00;96335.13;5023967;28;20607;-57
2021/06/19 06:17:41;;;;;;;12.13;9.50;;;;;;;24.81;100.00;96324.81;5022020;28;20072;-57
2021/06/19 06:20:11;;;;;;;9.77;8.75;;;;;;;25.19;100.00;96337.78;5020104;28;20080;-57
2021/06/19 06:22:40;;;;;;;11.43;9.25;;;;;;;25.42;100.00;96333.34;5023500;28;20069;-56
2021/06/19 06:25:10;;;;;;;12.63;8.90;;;;;;;25.43;100.00;96335.81;5025037;28;20081;-58
2021/06/19 06:27:39;;;;;;;11.25;9.50;;;;;;;25.54;100.00;96340.34;5022120;28;20042;-59
2021/06/19 06:30:08;;;;;;;12.68;9.30;;;;;;;26.04;100.00;96338.78;5024972;28;20076;-56
2021/06/19 06:32:37;;;;;;;12.98;9.40;;;;;;;26.10;100.00;96342.38;5021736;28;20128;-58
2021/06/19 06:35:09;;;;;;;11.98;9.60;;;;;;;25.39;100.00;96348.13;5024129;28;20076;-57
2021/06/19 06:37:38;;;;;;;14.18;9.20;;;;;;;25.77;100.00;96358.31;5015131;28;20072;-57
2021/06/19 06:40:08;;;;;;;11.10;9.57;;;;;;;25.71;100.00;96358.47;5022152;28;20072;-58
2021/06/19 06:42:40;;;;;;;16.67;8.85;;;;;;;25.25;100.00;96354.88;5020652;28;20060;-58
2021/06/19 06:45:09;;;;;;;18.95;10.13;;;;;;;26.01;100.00;96363.56;5024413;28;20065;-57
2021/06/19 06:47:38;;;;;;;12.27;8.73;;;;;;;26.07;100.00;96369.91;5020462;28;20450;-56
2021/06/19 06:50:10;;;;;;;11.55;8.60;;;;;;;25.50;100.00;96365.38;5024336;28;20073;-55
2021/06/19 06:52:43;;;;;;;12.15;8.95;;;;;;;25.91;100.00;96369.66;5016780;28;20071;-57
2021/06/19 06:55:13;;;;;;;13.75;8.73;;;;;;;25.71;100.00;96378.19;5023471;28;20086;-56
2021/06/19 06:57:43;;;;;;;13.02;8.40;;;;;;;26.47;100.00;96372.47;5019106;28;20087;-59
2021/06/19 07:00:13;;;;;;;13.82;8.85;;;;;;;26.36;100.00;96365.22;5017921;28;20476;-58
2021/06/19 07:02:43;;;;;;;12.50;8.63;;;;;;;26.44;100.00;96365.63;5021385;28;20083;-59
2021/06/19 07:05:13;;;;;;;11.55;8.10;;;;;;;26.28;100.00;96363.75;5022588;28;20069;-57
2021/06/19 07:07:43;;;;;;;12.27;8.63;;;;;;;26.95;100.00;96360.16;5013312;28;20069;-58
2021/06/19 07:10:13;;;;;;;12.18;8.13;;;;;;;27.01;100.00;96364.53;5020721;28;20085;-57
2021/06/19 07:12:43;;;;;;;11.45;7.30;;;;;;;27.38;93.94;96358.53;5022218;28;20088;-53
2021/06/19 07:15:13;;;;;;;11.27;7.90;;;;;;;27.27;89.47;96367.59;5019497;28;20076;-56
2021/06/19 07:17:43;;;;;;;9.18;7.57;;;;;;;27.42;86.90;96360.47;5017452;28;20107;-59
2021/06/19 07:20:14;;;;;;;13.88;7.90;;;;;;;27.38;88.43;96370.16;5023376;28;20065;-55
2021/06/19 07:22:43;;;;;;;13.93;7.60;;;;;;;27.52;89.53;96373.31;5022153;28;20473;-59
2021/06/19 07:25:13;;;;;;;10.93;7.05;;;;;;;27.82;85.39;96366.59;5024940;28;20479;-57
2021/06/19 07:27:43;;;;;;;12.93;7.60;;;;;;;27.27;91.30;96367.59;5021371;28;20077;-58
2021/06/19 07:30:12;;;;;;;12.88;7.75;;;;;;;27.24;90.01;96363.50;5023129;28;20844;-58
2021/06/19 07:32:41;;;;;;;;;;;;;;;27.14;89.23;96361.50;5023043;28;20176;-57
2021/06/19 07:35:10;;;;;;;10.25;7.70;;;;;;;27.08;90.38;96364.34;5025910;28;19960;-59
2021/06/19 07:37:40;;;;;;;14.57;8.07;;;;;;;27.19;93.60;96363.47;5025716;28;20061;-58
2021/06/19 07:40:09;;;;;;;16.23;8.13;;;;;;;26.96;92.66;96361.78;5020445;28;20747;-58
2021/06/19 07:42:38;;;;;;;13.77;7.68;;;;;;;27.09;91.52;96363.31;5021527;28;20454;-56
2021/06/19 07:45:08;;;;;;;14.52;7.97;;;;;;;27.29;90.31;96355.47;5023252;28;20064;-58
2021/06/19 07:47:38;;;;;;;13.27;8.00;;;;;;;27.67;84.22;96361.81;5019677;28;20068;-57
2021/06/19 07:50:14;;;;;;;14.70;7.72;;;;;;;27.60;84.49;96364.75;5021307;28;20072;-56
2021/06/19 07:52:46;;;;;;;11.77;7.35;;;;;;;27.64;86.05;96363.16;5022840;28;20068;-58
2021/06/19 07:55:16;;;;;;;11.43;8.38;;;;;;;27.05;87.15;96364.84;5021226;28;20088;-58
2021/06/19 07:57:45;;;;;;;12.82;8.30;;;;;;;27.53;88.51;96366.00;5027145;28;20096;-57
2021/06/19 08:00:15;;;;;;;13.35;7.72;;;;;;;27.33;90.45;96372.84;5018913;28;20072;-58
2021/06/19 08:02:46;;;;;;;13.18;7.90;;;;;;;27.64;88.26;96365.84;5022822;28;20061;-54
2021/06/19 08:05:15;;;;;;;17.92;7.95;;;;;;;28.12;87.07;96368.78;5021697;28;20072;-58
2021/06/19 08:07:45;;;;;;;10.77;8.35;;;;;;;27.26;89.12;96360.56;5025748;28;20065;-58
2021/06/19 08:10:13;;;;;;;19.75;8.15;;;;;;;27.77;87.44;96361.97;5022496;28;20076;-57
2021/06/19 08:12:43;;;;;;;17.73;8.20;;;;;;;27.87;84.28;96370.19;5028123;28;20089;-57
2021/06/19 08:15:13;;;;;;;12.60;8.00;;;;;;;28.32;83.77;96368.09;5025760;28;20076;-58
2021/06/19 08:17:42;;;;;;;12.57;7.72;;;;;;;28.54;83.00;96362.59;5026301;28;20038;-58
2021/06/19 08:20:12;;;;;;;13.00;8.27;;;;;;;28.94;73.01;96366.63;5018912;28;20503;-57
2021/06/19 08:22:41;;;;;;;11.93;7.93;;;;;;;28.72;77.26;96354.03;5027835;28;20646;-55
2021/06/19 08:25:12;;;;;;;12.68;8.52;;;;;;;29.04;71.34;96348.53;5024244;28;20092;-55
2021/06/19 08:27:41;;;;;;;11.20;7.65;;;;;;;29.83;68.17;96351.22;5021177;28;21509;-55
2021/06/19 08:30:10;;;;;;;11.30;7.70;;;;;;;30.64;65.66;96350.41;5022700;28;20087;-58
2021/06/19 08:32:40;;;;;;;11.13;7.60;;;;;;;30.38;67.19;96347.72;5024729;28;20073;-56
2021/06/19 08:35:10;;;;;;;10.43;7.30;;;;;;;29.82;69.57;96346.88;5020731;28;20064;-58
2021/06/19 08:37:38;;;;;;;11.15;7.72;;;;;;;30.72;64.71;96339.75;5025943;28;20068;-59
2021/06/19 08:40:08;;;;;;;11.52;7.82;;;;;;;30.77;63.15;96346.34;5021332;28;20086;-56
2021/06/19 08:42:38;;;;;;;;;;;;;;;31.05;63.01;96339.44;5014326;28;20083;-55
2021/06/19 08:45:08;;;;;;;12.95;8.20;;;;;;;29.75;68.21;96337.06;5022675;28;19949;-58
2021/06/19 08:47:37;;;;;;;10.90;7.90;;;;;;;30.49;62.98;96333.03;5003644;28;20588;-57
2021/06/19 08:50:08;;;;;;;12.65;7.65;;;;;;;30.64;64.18;96329.44;5022762;28;20077;-55
2021/06/19 08:52:37;;;;;;;13.95;7.55;;;;;;;30.46;63.89;96332.75;5020305;28;20070;-56
2021/06/19 08:55:08;;;;;;;25.57;8.50;;;;;;;31.02;65.18;96329.91;5020834;28;20081;-58
2021/06/19 08:57:39;;;;;;;15.27;8.32;;;;;;;30.20;60.60;96326.53;5023964;28;20049;-56
2021/06/19 09:00:09;;;;;;;10.15;7.88;;;;;;;30.70;61.83;96322.91;5025768;28;20061;-54
2021/06/19 09:02:38;;;;;;;11.90;8.07;;;;;;;30.61;59.22;96330.00;5020328;28;20587;-55
2021/06/19 09:05:09;;;;;;;13.20;7.83;;;;;;;31.19;56.55;96324.13;5025429;28;20061;-57
2021/06/19 09:07:38;;;;;;;9.95;7.53;;;;;;;30.48;59.55;96325.94;5021185;28;20060;-53
2021/06/19 09:10:29;;;;;;;;;;;;;;;30.76;56.67;96328.34;5023294;28;20077;-57
2021/06/19 09:13:04;;;;;;;25.40;9.23;;;;;;;30.44;60.82;96329.50;5020322;28;21446;-58
2021/06/19 09:15:34;;;;;;;12.70;7.70;;;;;;;30.44;58.86;96329.50;5025548;28;20084;-58
2021/06/19 09:18:09;;;;;;;15.55;8.32;;;;;;;31.53;53.96;96323.44;5015062;28;20061;-56
2021/06/19 09:20:40;;;;;;;9.98;7.85;;;;;;;31.38;54.07;96322.44;5025614;28;20068;-57
2021/06/19 09:23:29;;;;;;;11.77;7.57;;;;;;;31.37;56.93;96320.78;5006597;28;20081;-56
2021/06/19 09:26:09;;;;;;;11.40;7.82;;;;;;;31.83;52.29;96314.22;5018244;28;20459;-58
2021/06/19 09:29:04;;;;;;;16.38;8.07;;;;;;;32.21;50.18;96320.78;5018692;28;20654;-55
2021/06/19 09:31:42;;;;;;;9.27;7.70;;;;;;;32.38;50.86;96314.88;5023964;28;20472;-56
2021/06/19 09:34:13;;;;;;;11.07;8.23;;;;;;;32.53;46.96;96316.69;5019391;28;20551;-58
2021/06/19 09:36:49;;;;;;;25.13;8.90;;;;;;;32.59;50.41;96315.53;5025263;28;20451;-58
2021/06/19 09:39:18;;;;;;;12.25;8.10;;;;;;;31.43;50.34;96318.84;5020284;28;20068;-59
2021/06/19 09:41:47;;;;;;;;;;;;;;;31.52;51.32;96305.44;5021263;28;20065;-54
2021/06/19 09:44:17;;;;;;;11.30;8.15;;;;;;;32.49;49.27;96305.53;5017286;28;19975;-57
2021/06/19 09:46:56;;;;;;;;;;;;;;;31.88;50.00;96306.84;5023856;28;20075;-55
2021/06/19 09:49:30;;;;;;;14.63;8.38;;;;;;;32.01;48.78;96296.41;5020160;28;19956;-58
2021/06/19 09:51:59;;;;;;;11.02;8.48;;;;;;;31.63;50.87;96298.84;5028159;28;20081;-53
2021/06/19 09:54:28;;;;;;;12.15;8.27;;;;;;;32.77;47.89;96295.66;5015976;28;20057;-57
2021/06/19 09:56:59;;;;;;;14.95;8.55;;;;;;;32.87;46.99;96296.66;5019248;28;20065;-58
2021/06/19 09:59:30;;;;;;;10.50;8.38;;;;;;;31.80;50.36;96299.25;5023570;28;20469;-56
2021/06/19 10:02:00;;;;;;;13.07;9.40;;;;;;;32.04;50.44;96285.72;5024041;28;20065;-57
2021/06/19 10:04:29;;;;;;;10.73;8.35;;;;;;;32.86;46.46;96290.34;5017490;28;20084;-56
2021/06/19 10:06:59;;;;;;;11.35;8.18;;;;;;;32.41;48.47;96289.72;5027496;28;20073;-59
2021/06/19 10:09:27;;;;;;;11.02;8.00;;;;;;;31.84;49.62;96289.41;5021109;28;20586;-56
2021/06/19 10:11:56;;;;;;;13.02;8.23;;;;;;;32.19;46.81;96290.22;5018113;28;20064;-56
2021/06/19 10:14:25;;;;;;;10.43;7.78;;;;;;;33.02;47.49;96282.84;5022281;28;20069;-59
2021/06/19 10:16:55;;;;;;;14.57;8.85;;;;;;;33.13;46.08;96273.38;5019385;28;20065;-58
2021/06/19 10:19:25;;;;;;;12.38;7.72;;;;;;;33.02;44.98;96272.72;5022153;28;20100;-57
2021/06/19 10:21:55;;;;;;;14.10;8.13;;;;;;;32.23;46.92;96274.91;5023348;28;20645;-58
2021/06/19 10:24:25;;;;;;;12.98;8.40;;;;;;;32.27;46.99;96270.50;5019982;28;20632;-59
2021/06/19 10:26:54;;;;;;;11.38;7.85;;;;;;;32.64;48.02;96271.78;5025466;28;20061;-56
2021/06/19 10:29:26;;;;;;;10.82;7.63;;;;;;;32.58;46.28;96262.81;5022091;28;20061;-58
2021/06/19 10:31:56;;;;;;;9.98;7.88;;;;;;;33.05;45.08;96268.59;5019425;28;20073;-55
2021/06/19 10:34:27;;;;;;;12.48;7.78;;;;;;;33.13;44.61;96267.13;5023106;28;20085;-55
2021/06/19 10:36:57;;;;;;;9.20;8.07;;;;;;;32.98;46.65;96265.41;5022456;28;20085;-58
2021/06/19 10:39:41;;;;;;;10.52;7.88;;;;;;;32.91;46.35;96271.19;5016624;28;20070;-56
2021/06/19 10:42:27;;;;;;;9.30;7.57;;;;;;;33.28;47.53;96267.72;5023368;28;20537;-57
2021/06/19 10:44:59;;;;;;;13.00;7.97;;;;;;;32.98;47.69;96268.94;5023001;28;20073;-57
2021/06/19 10:47:31;;;;;;;13.10;8.93;;;;;;;33.99;44.76;96268.56;5023498;28;20146;-54
2021/06/19 10:50:01;;;;;;;16.85;8.88;;;;;;;34.01;44.83;96262.84;5019420;28;20065;-56
2021/06/19 10:52:35;;;;;;;61.83;10.68;;;;;;;33.39;45.85;96256.66;5018559;28;20076;-57
2021/06/19 10:55:29;;;;;;;11.60;7.82;;;;;;;33.32;45.38;96243.34;5027795;28;20073;-57
2021/06/19 10:58:00;;;;;;;14.80;8.70;;;;;;;33.61;44.46;96253.34;5022241;28;20271;-58
2021/06/19 11:00:34;;;;;;;22.70;8.63;;;;;;;34.00;42.38;96240.16;5019885;28;20069;-56
2021/06/19 11:03:06;;;;;;;12.32;8.57;;;;;;;33.97;42.89;96246.19;5021896;28;20072;-57
2021/06/19 11:05:58;;;;;;;11.73;8.18;;;;;;;34.53;40.84;96233.44;5023535;28;20085;-59
2021/06/19 11:08:27;;;;;;;13.68;8.20;;;;;;;34.02;41.77;96228.88;4991289;28;20069;-58
2021/06/19 11:11:00;;;;;;;12.80;7.22;;;;;;;33.91;44.71;96225.47;5024055;28;20144;-59
2021/06/19 11:13:42;;;;;;;21.98;8.57;;;;;;;33.60;43.21;96219.72;5016669;28;20081;-59
2021/06/19 11:16:44;;;;;;;15.95;7.90;;;;;;;32.95;43.26;96219.50;5020663;28;20072;-54
2021/06/19 11:19:35;;;;;;;8.45;7.43;;;;;;;34.33;40.72;96217.38;5021710;28;21358;-57
2021/06/19 11:22:26;;;;;;;11.55;7.50;;;;;;;34.78;39.40;96212.13;5023167;28;20087;-59
2021/06/19 11:25:21;;;;;;;13.20;7.53;;;;;;;33.75;40.54;96203.03;5022576;28;20448;-58
2021/06/19 11:27:58;;;;;;;12.43;7.75;;;;;;;33.58;42.56;96202.78;5017837;28;20069;-58
2021/06/19 11:30:52;;;;;;;11.40;7.38;;;;;;;33.10;42.12;96194.72;5019112;28;20065;-56
2021/06/19 11:33:50;;;;;;;19.48;8.60;;;;;;;33.95;42.84;96190.94;5019688;28;20061;-56
2021/06/19 11:36:30;;;;;;;13.30;8.00;;;;;;;33.68;41.45;96194.41;5021865;28;20091;-58
2021/06/19 11:39:15;;;;;;;10.13;7.30;;;;;;;33.96;40.71;96191.72;5014308;28;20080;-58